Steeton, United Kingdom
Current Conditions -  °F | °C
As of 3:50 PM on Tuesday 21 Oct 2014 (Local Time) from EGNM Reporting Station
Few Clouds Few Clouds  
Wind Chill:   Ceiling: Unl
Heat Index:   Visibility: 6mi
Dew Point:   Wind: 25mph
Humidity: 57%   Direction: 300°WNW
Pressure: 29.65"   Gusts: 37mph
Location:  53.88°N, 1.95°W
Report Text: EGNM 211450Z 30022G32KT 9999 FEW010 FEW029CB 09/01 Q1004
Loading
Personal Weather Stations






























Interactive Weather Map
Tropical Storm Tracking
New forecast layout! Learn more

10-Day Weather Forecast

Advertisements
Track Severe Weather on mobile